Latest Coastal Weather Observations for Laverton

IDV60701

Issued at 10:25 am EST Wednesday 1 October 2014 (issued every 10 minutes, with the page automatically refreshed every 10 minutes)

About coastal observations | Map of coastal stations | Coastal observations for VIC | Marine services | Other Formats
Station Details ID: 087031 Name: LAVERTON RAAF Lat: -37.86 Lon: 144.76 Height: 20.1 m
Data from the previous 72 hours. | See also: Recent months at Laverton
Date/Time
EST
Temp

°C
Wind Pressure Rain
since 9am
mm
Weather Cloud Vis
km
Sea
Height
m
Swell
Dir
 
Speed
knots
Gust
knots
hPa Trend Height
m
Period
s
Dir
01/10:00am 12.9 WSW 15 24 1023.9 - 0.0 - Partly cloudy 10 - - - -
01/09:30am 13.5 SW 13 20 1023.7 - 0.0 - Partly cloudy 10 - - - -
01/09:00am 12.0 W 14 21 1023.2 - 1.6 - - 10 - - - -
01/08:30am 10.9 W 12 17 1022.7 - 1.6 - - 10 - - - -
01/08:00am 9.9 W 12 17 1022.2 - 1.6 - - 10 - - - -
01/07:30am 8.3 W 13 16 1021.7 - 1.6 - - 10 - - - -
01/07:00am 6.5 WNW 10 13 1021.2 - 1.6 - - 10 - - - -
01/06:30am 5.3 WNW 8 11 1020.9 - 1.6 - - 10 - - - -
01/06:00am 4.6 WNW 9 11 1020.2 - 1.6 - - 10 - - - -
01/05:30am 5.7 W 9 11 1019.7 - 1.6 - - 10 - - - -
01/05:00am 6.2 W 12 17 1019.3 - 1.6 - - 10 - - - -
01/04:30am 6.5 W 11 14 1018.9 - 1.6 - - 10 - - - -
01/04:00am 6.7 W 11 15 1018.4 - 1.6 - - 10 - - - -
01/03:30am 7.2 W 12 18 1018.2 - 1.6 - - 10 - - - -
01/03:00am 7.1 W 11 16 1017.6 - 1.6 - - 10 - - - -
01/02:30am 7.3 W 12 17 1017.4 - 1.6 - Partly cloudy 10 - - - -
01/02:00am 7.3 W 12 19 1017.2 - 1.6 - - 10 - - - -
01/01:30am 7.3 W 11 20 1017.0 - 1.6 - - 10 - - - -
01/01:00am 7.3 W 11 15 1016.7 - 1.6 - - 10 - - - -
01/12:30am 7.4 WNW 11 16 1016.2 - 1.6 - Partly cloudy 10 - - - -
01/12:00am 7.1 WNW 9 13 1015.8 - 1.6 - Mostly clear 10 - - - -
 
Date/Time
EST
Temp

°C
Wind Pressure Rain
since 9am
mm
Weather Cloud Vis
km
Sea
Height
m
Swell
Dir
 
Speed
knots
Gust
knots
hPa Trend Height
m
Period
s
Dir
30/11:30pm 7.3 WNW 11 15 1015.5 - 1.6 - - 10 - - - -
30/11:00pm 8.0 W 15 20 1015.2 - 1.6 - - 10 - - - -
30/10:30pm 8.7 W 13 19 1015.0 - 1.6 - Partly cloudy 10 - - - -
30/10:00pm 9.0 W 13 18 1014.2 - 1.6 - - 10 - - - -
30/09:30pm 7.8 WNW 10 13 1013.8 - 1.6 - - 10 - - - -
30/09:00pm 8.9 WNW 9 13 1013.5 - 1.6 - Mostly clear 10 - - - -
30/08:30pm 9.4 W 8 11 1013.3 - 1.6 - Partly cloudy 10 - - - -
30/08:00pm 9.6 W 11 15 1013.1 - 1.6 - - 10 - - - -
30/07:30pm 9.8 W 13 20 1012.4 - 1.6 - - 10 - - - -
30/07:00pm 10.2 W 13 19 1011.5 - 1.6 - - 10 - - - -
30/06:30pm 10.7 WSW 14 20 1010.8 - 1.6 - Partly cloudy 10 - - - -
30/06:00pm 11.1 W 19 26 1010.6 - 1.6 - Cloudy 10 - - - -
30/05:30pm 11.6 WNW 17 23 1009.8 - 1.6 - Partly cloudy 10 - - - -
30/05:04pm 11.1 W 17 27 1009.6 - 1.6 - Partly cloudy 10 - - - -
30/05:00pm 11.1 W 18 27 1009.6 - 1.6 - Partly cloudy 10 - - - -
30/04:30pm 10.5 W 20 31 1009.1 - 1.6 - Partly cloudy 10 - - - -
30/04:17pm 9.7 W 19 26 1009.1 - 1.6 - Partly cloudy 10 - - - -
30/04:04pm 9.8 W 30 44 1009.3 - 1.4 - Partly cloudy 10 - - - -
30/04:00pm 10.2 WSW 31 44 1009.1 - 1.4 - Partly cloudy 10 - - - -
30/03:38pm 11.4 WSW 27 42 1007.0 - 0.8 - Partly cloudy 7 - - - -
30/03:33pm 12.0 WSW 25 42 1006.9 - 0.6 - Partly cloudy 10 - - - -
30/03:32pm 12.1 WSW 24 42 1006.9 - 0.6 - Partly cloudy 10 - - - -
30/03:30pm 12.3 WSW 24 33 1006.7 - 0.6 - Partly cloudy 10 - - - -
30/03:00pm 13.5 W 29 47 1005.0 - 0.2 Rain Mostly cloudy 4 - - - -
30/02:54pm 13.8 W 29 47 1004.5 - 0.0 - Partly cloudy 6 - - - -
30/02:45pm 18.6 W 31 45 1004.0 - 0.0 - Partly cloudy 10 - - - -
30/02:30pm 22.5 NW 33 47 1002.1 - 0.0 - Partly cloudy 10 - - - -
30/02:00pm 23.5 NW 30 45 1002.0 - 0.0 - Partly cloudy 10 - - - -
30/01:56pm 23.8 NW 30 45 1001.9 - 0.0 - Partly cloudy 10 - - - -
30/01:43pm 23.6 NW 25 35 1002.1 - 0.0 - Partly cloudy 10 - - - -
30/01:30pm 23.5 NW 25 34 1002.5 - 0.0 - Partly cloudy 10 - - - -
30/01:00pm 22.5 NNW 21 31 1003.3 - 0.0 - Partly cloudy 10 - - - -
30/12:31pm 21.5 NW 22 32 1004.2 - 0.0 - Partly cloudy 10 - - - -
30/12:30pm 21.6 NW 22 30 1004.4 - 0.0 - Partly cloudy 10 - - - -
30/12:00pm 21.6 NW 23 33 1004.8 - 0.0 - Cloudy 10 - - - -
30/11:32am 22.8 NNW 19 32 1005.1 - 0.0 - Partly cloudy 10 - - - -
30/11:30am 22.0 NNW 19 27 1005.3 - 0.0 - Partly cloudy 10 - - - -
30/11:01am 21.5 NNW 18 29 1005.9 - 0.0 - Partly cloudy 10 - - - -
30/11:00am 21.8 NNW 18 24 1006.1 - 0.0 - Partly cloudy 10 - - - -
30/10:30am 21.2 N 18 27 1006.4 - 0.0 - Partly cloudy 10 - - - -
30/10:00am 21.0 NNW 18 25 1007.1 - 0.0 - Partly cloudy 10 - - - -
30/09:30am 20.0 NNW 17 23 1007.5 - 0.0 - Partly cloudy 10 - - - -
30/09:00am 18.9 N 17 25 1008.2 - 0.0 - Mostly clear 10 - - - -
30/08:30am 18.0 N 13 20 1009.0 - 0.0 - - 10 - - - -
30/08:00am 16.8 N 12 19 1009.2 - 0.0 - - 10 - - - -
30/07:30am 14.9 N 10 15 1009.7 - 0.0 - - 10 - - - -
30/07:00am 13.4 N 9 13 1010.2 - 0.0 - - 10 - - - -
30/06:30am 12.5 NNW 8 11 1010.0 - 0.0 - - 10 - - - -
30/06:00am 9.1 NW 7 8 1009.6 - 0.0 - - 10 - - - -
30/05:30am 10.3 NNW 7 9 1009.4 - 0.0 - - 10 - - - -
30/05:00am 10.9 NNW 6 8 1009.2 - 0.0 - - 10 - - - -
30/04:30am 11.4 N 6 7 1009.0 - 0.0 - - 10 - - - -
30/04:00am 9.8 NNW 4 5 1009.2 - 0.0 - - 10 - - - -
30/03:30am 11.2 N 5 6 1009.5 - 0.0 - Partly cloudy 10 - - - -
30/03:00am 10.7 N 5 6 1009.8 - 0.0 - - 10 - - - -
30/02:30am 10.8 NW 1 4 1009.9 - 0.0 - - 10 - - - -
30/02:00am 12.4 CALM 0 0 1010.4 - 0.0 - - 10 - - - -
30/01:30am 13.8 W 5 6 1011.0 - 0.0 - - 10 - - - -
30/01:00am 14.3 NW 6 7 1011.0 - 0.0 - - 10 - - - -
30/12:30am 15.1 SW 8 12 1011.1 - 0.0 - Partly cloudy 10 - - - -
30/12:00am 15.8 N 9 13 1011.1 - 0.0 - Mostly cloudy 10 - - - -
 
Date/Time
EST
Temp

°C
Wind Pressure Rain
since 9am
mm
Weather Cloud Vis
km
Sea
Height
m
Swell
Dir
 
Speed
knots
Gust
knots
hPa Trend Height
m
Period
s
Dir
29/11:30pm 15.7 N 8 11 1011.4 - 0.0 - Cloudy 10 - - - -
29/11:00pm 15.5 N 9 12 1011.7 - 0.0 - Partly cloudy 10 - - - -
29/10:30pm 15.6 N 9 12 1011.9 - 0.0 - - 10 - - - -
29/10:00pm 16.0 N 11 15 1011.8 - 0.0 - - 10 - - - -
29/09:30pm 16.2 N 10 13 1011.8 - 0.0 - - 10 - - - -
29/09:00pm 16.5 N 10 13 1011.7 - 0.0 - - 10 - - - -
29/08:30pm 16.9 N 8 11 1011.8 - 0.0 - - 10 - - - -
29/08:00pm 17.3 N 8 10 1011.5 - 0.0 - - 10 - - - -
29/07:30pm 17.6 N 6 7 1011.4 - 0.0 - - 10 - - - -
29/07:00pm 18.2 N 7 9 1011.1 - 0.0 - - 10 - - - -
29/06:30pm 18.7 NNW 7 9 1011.1 - 0.0 - - 10 - - - -
29/06:00pm 20.3 NNW 7 10 1010.9 - 0.0 - - 10 - - - -
29/05:30pm 21.5 N 11 16 1010.8 - 0.0 - - 10 - - - -
29/05:00pm 22.2 NNW 12 20 1010.7 - 0.0 - - 10 - - - -
29/04:30pm 22.9 NNW 11 19 1010.4 - 0.0 - - 10 - - - -
29/04:00pm 22.6 N 13 20 1010.3 - 0.0 - - 10 - - - -
29/03:30pm 22.5 N 14 20 1010.4 - 0.0 - - 10 - - - -
29/03:00pm 22.3 N 14 20 1010.6 - 0.0 - - 10 - - - -
29/02:30pm 22.3 N 14 22 1010.8 - 0.0 - - 10 - - - -
29/02:00pm 22.1 NNW 14 21 1011.1 - 0.0 - - 10 - - - -
29/01:30pm 21.8 N 13 19 1011.4 - 0.0 - - 10 - - - -
29/01:00pm 21.4 N 10 16 1012.1 - 0.0 - Partly cloudy 10 - - - -
29/12:30pm 21.6 NNW 11 13 1012.7 - 0.0 - Partly cloudy 10 - - - -
29/12:00pm 20.3 NW 11 17 1012.9 - 0.0 - - 10 - - - -
29/11:30am 19.8 NW 10 17 1013.3 - 0.0 - Partly cloudy 10 - - - -
29/11:00am 18.3 NW 12 20 1013.6 - 0.0 - Partly cloudy 10 - - - -
29/10:30am 17.6 W 10 15 1013.8 - 0.0 - Partly cloudy 10 - - - -
29/10:00am 17.6 NW 12 16 1014.0 - 0.0 - Partly cloudy 10 - - - -
29/09:30am 17.3 W 10 15 1014.1 - 0.0 - Partly cloudy 10 - - - -
29/09:00am 16.9 W 10 13 1013.8 - 0.0 - - 10 - - - -
29/08:30am 16.0 WNW 11 15 1013.7 - 0.0 - - 10 - - - -
29/08:00am 15.5 WNW 10 13 1013.5 - 0.0 - - 10 - - - -
29/07:30am 14.9 W 10 13 1013.4 - 0.0 - Partly cloudy 10 - - - -
29/07:00am 14.0 WNW 9 14 1013.5 - 0.0 - Partly cloudy 10 - - - -
29/06:30am 13.2 WNW 3 5 1012.9 - 0.0 - Partly cloudy 10 - - - -
29/06:00am 13.8 W 7 10 1012.0 - 0.0 - Mostly cloudy 10 - - - -
29/05:30am 13.8 W 7 13 1011.9 - 0.0 - - 10 - - - -
29/05:00am 12.9 WNW 5 10 1011.5 - 0.0 - Partly cloudy 10 - - - -
29/04:30am 13.1 NNE 4 5 1011.1 - 0.0 - Cloudy 10 - - - -
29/04:00am 13.0 NW 5 9 1010.7 - 0.0 - Partly cloudy 10 - - - -
29/03:30am 13.5 WNW 11 19 1010.2 - 0.0 - - 10 - - - -
29/03:00am 13.8 W 8 11 1010.1 - 0.0 - - 10 - - - -
29/02:30am 14.2 W 7 13 1010.2 - 0.0 - - 10 - - - -
29/02:00am 14.8 W 11 17 1009.8 - 0.0 - - 10 - - - -
29/01:30am 14.8 W 11 17 1009.6 - 0.0 - - 10 - - - -
29/01:00am 15.6 W 11 18 1009.6 - 0.0 - - 10 - - - -
29/12:30am 15.8 W 9 13 1008.8 - 0.0 - - 10 - - - -
29/12:00am 15.8 W 9 13 1008.6 - 0.0 - Cloudy 10 - - - -
 
Date/Time
EST
Temp

°C
Wind Pressure Rain
since 9am
mm
Weather Cloud Vis
km
Sea
Height
m
Swell
Dir
 
Speed
knots
Gust
knots
hPa Trend Height
m
Period
s
Dir
28/11:30pm 16.0 WSW 10 15 1008.2 - 0.0 - Partly cloudy 10 - - - -
28/11:00pm 16.4 W 8 12 1007.6 - 0.0 - - 10 - - - -
28/10:30pm 16.7 WSW 8 15 1007.2 - 0.0 - Cloudy 10 - - - -
28/10:00pm 16.8 SW 9 12 1006.7 - 0.0 - Cloudy 10 - - - -
28/09:30pm 17.5 SW 13 17 1006.8 - 0.0 - Partly cloudy 10 - - - -
28/09:00pm 20.5 SW 13 16 1006.0 - 0.0 - Cloudy 10 - - - -
28/08:30pm 24.7 W 16 21 1005.1 - 0.0 - Partly cloudy 10 - - - -
28/08:09pm 24.7 N 15 25 1003.4 - 0.0 - - 10 - - - -
28/08:00pm 24.9 N 16 25 1003.1 - 0.0 - - 10 - - - -
28/07:30pm 25.2 N 17 31 1002.8 - 0.0 - Partly cloudy 10 - - - -
28/07:00pm 25.5 N 17 27 1002.9 - 0.0 - Partly cloudy 10 - - - -
28/06:30pm 25.8 N 19 30 1003.0 - 0.0 - - 10 - - - -
28/06:00pm 26.3 N 20 32 1003.0 - 0.0 - Partly cloudy 10 - - - -
28/05:31pm 26.5 N 19 29 1002.9 - 0.0 - - 10 - - - -
28/05:30pm 26.6 N 20 29 1002.8 - 0.0 - - 10 - - - -
28/05:00pm 27.7 N 22 34 1002.7 - 0.0 - - 10 - - - -
28/04:30pm 28.0 N 23 39 1003.3 - 0.0 - - 10 - - - -
28/04:00pm 28.3 N 21 36 1003.8 - 0.0 - - 10 - - - -
28/03:30pm 28.2 N 22 36 1004.2 - 0.0 - - 10 - - - -
28/03:00pm 28.2 N 23 34 1004.3 - 0.0 - - 10 - - - -
28/02:30pm 27.1 N 19 29 1005.1 - 0.0 - - 10 - - - -
28/02:00pm 26.8 N 20 30 1006.2 - 0.0 - - 10 - - - -
28/01:30pm 26.9 NNW 25 35 1007.0 - 0.0 - - 10 - - - -
28/01:00pm 26.2 N 16 26 1007.8 - 0.0 - - 10 - - - -
28/12:30pm 26.6 N 17 29 1007.8 - 0.0 - - 10 - - - -
28/12:18pm 24.7 N 20 31 1008.5 - 0.0 - - 10 - - - -
28/12:00pm 24.2 N 22 36 1006.4 - 0.0 - - 10 - - - -
28/11:30am 23.1 N 23 38 1007.1 - 0.0 - - 10 - - - -
28/11:00am 22.5 N 24 39 1007.9 - 0.0 - - 10 - - - -
28/10:30am 21.7 N 23 34 1008.7 - 0.0 - - 10 - - - -

Other Formats:

Comma delimited format used in spreadsheet applications
http://www.bom.gov.au/fwo/IDV60701/IDV60701.94865.axf

JavaScript Object Notation format (JSON) in row-major order
http://www.bom.gov.au/fwo/IDV60701/IDV60701.94865.json